NJE300 UHHH-UHNN
Flight info
| Callsign | NJE300 |
|---|---|
| Flight time | N/A |
| Altitude | 35000 |
| Route | TOMSU4R TOMSU G212 LEKBI LEKBI1M |
| Aircraft | A20N/M-SDE2E3FGHIRWXY/LB1 |
Departure
| Time | 2026-04-28 05:11 |
|---|---|
| Airport | Khabarovsk Novy Airport (UHHH) |
Arrival
| Time | N/A |
|---|---|
| Airport | Nikolayevsk-na-Amure Airport (UHNN) |
| Time | Latitude | Longitude | Altitude | Speed | Heading |
|---|---|---|---|---|---|
| 2026-04-28 04:54 | 48.52676 | 135.17618 | 245 ft | 0 kts | 134° |
| 2026-04-28 04:58 | 48.52685 | 135.17603 | 245 ft | 4 kts | 134° |
| 2026-04-28 04:58 | 48.52704 | 135.17574 | 245 ft | 4 kts | 135° |
| 2026-04-28 04:58 | 48.52724 | 135.17546 | 245 ft | 4 kts | 136° |
| 2026-04-28 04:58 | 48.52741 | 135.17520 | 245 ft | 2 kts | 128° |
| 2026-04-28 04:59 | 48.52747 | 135.17505 | 245 ft | 2 kts | 70° |
| 2026-04-28 04:59 | 48.52742 | 135.17492 | 245 ft | 0 kts | 51° |
| 2026-04-28 04:59 | 48.52743 | 135.17495 | 245 ft | 0 kts | 51° |
| 2026-04-28 05:00 | 48.52754 | 135.17514 | 245 ft | 4 kts | 46° |
| 2026-04-28 05:00 | 48.52786 | 135.17552 | 245 ft | 8 kts | 39° |
| 2026-04-28 05:01 | 48.52834 | 135.17614 | 245 ft | 11 kts | 41° |
| 2026-04-28 05:01 | 48.52896 | 135.17698 | 245 ft | 13 kts | 41° |
| 2026-04-28 05:01 | 48.52903 | 135.17707 | 245 ft | 1 kts | 41° |
| 2026-04-28 05:01 | 48.52916 | 135.17727 | 245 ft | 4 kts | 48° |
| 2026-04-28 05:02 | 48.52930 | 135.17781 | 245 ft | 7 kts | 89° |
| 2026-04-28 05:02 | 48.52899 | 135.17854 | 245 ft | 10 kts | 131° |
| 2026-04-28 05:02 | 48.52847 | 135.17943 | 245 ft | 13 kts | 131° |
| 2026-04-28 05:02 | 48.52784 | 135.18055 | 245 ft | 15 kts | 127° |
| 2026-04-28 05:03 | 48.52786 | 135.18099 | 245 ft | 5 kts | 66° |
| 2026-04-28 05:03 | 48.52817 | 135.18150 | 245 ft | 8 kts | 43° |
| 2026-04-28 05:03 | 48.52866 | 135.18219 | 245 ft | 11 kts | 42° |
| 2026-04-28 05:03 | 48.52931 | 135.18307 | 245 ft | 14 kts | 42° |
| 2026-04-28 05:04 | 48.53010 | 135.18414 | 244 ft | 16 kts | 41° |
| 2026-04-28 05:04 | 48.53038 | 135.18570 | 244 ft | 18 kts | 117° |
| 2026-04-28 05:04 | 48.52955 | 135.18714 | 243 ft | 19 kts | 123° |
| 2026-04-28 05:04 | 48.52952 | 135.18900 | 243 ft | 20 kts | 75° |
| 2026-04-28 05:05 | 48.52985 | 135.19110 | 244 ft | 21 kts | 77° |
| 2026-04-28 05:05 | 48.53021 | 135.19337 | 244 ft | 23 kts | 73° |
| 2026-04-28 05:05 | 48.53119 | 135.19530 | 246 ft | 24 kts | 43° |
| 2026-04-28 05:05 | 48.53245 | 135.19702 | 246 ft | 25 kts | 42° |
| 2026-04-28 05:06 | 48.53380 | 135.19887 | 244 ft | 27 kts | 42° |
| 2026-04-28 05:06 | 48.53526 | 135.20085 | 242 ft | 29 kts | 42° |
| 2026-04-28 05:06 | 48.53677 | 135.20291 | 244 ft | 29 kts | 41° |
| 2026-04-28 05:06 | 48.53831 | 135.20496 | 245 ft | 30 kts | 41° |
| 2026-04-28 05:07 | 48.53987 | 135.20703 | 244 ft | 31 kts | 41° |
| 2026-04-28 05:07 | 48.54094 | 135.20786 | 242 ft | 16 kts | 13° |
| 2026-04-28 05:07 | 48.54137 | 135.20877 | 242 ft | 10 kts | 130° |
| 2026-04-28 05:07 | 48.54083 | 135.20844 | 242 ft | 10 kts | 222° |
| 2026-04-28 05:08 | 48.54077 | 135.20836 | 242 ft | 0 kts | 222° |
| 2026-04-28 05:08 | 48.54075 | 135.20834 | 242 ft | 0 kts | 222° |
| 2026-04-28 05:09 | 48.54074 | 135.20832 | 242 ft | 0 kts | 222° |
| 2026-04-28 05:10 | 48.54074 | 135.20831 | 242 ft | 1 kts | 222° |
| 2026-04-28 05:10 | 48.53949 | 135.20661 | 244 ft | 58 kts | 222° |
| 2026-04-28 05:10 | 48.53484 | 135.20028 | 243 ft | 119 kts | 222° |
| 2026-04-28 05:10 | 48.52773 | 135.19049 | 369 ft | 151 kts | 223° |
| 2026-04-28 05:11 | 48.52015 | 135.17982 | 911 ft | 151 kts | 229° |
| 2026-04-28 05:11 | 48.51276 | 135.16796 | 1464 ft | 159 kts | 230° |
| 2026-04-28 05:11 | 48.50500 | 135.15582 | 2076 ft | 164 kts | 228° |
| 2026-04-28 05:11 | 48.49640 | 135.14315 | 2478 ft | 182 kts | 225° |
| 2026-04-28 05:12 | 48.49005 | 135.13427 | 2697 ft | 195 kts | 224° |
| 2026-04-28 05:12 | 48.47953 | 135.11981 | 3077 ft | 214 kts | 224° |
| 2026-04-28 05:12 | 48.46796 | 135.10385 | 3495 ft | 237 kts | 224° |
| 2026-04-28 05:12 | 48.45086 | 135.08051 | 4342 ft | 259 kts | 223° |
| 2026-04-28 05:13 | 48.44176 | 135.06817 | 4984 ft | 262 kts | 223° |
| 2026-04-28 05:13 | 48.42837 | 135.04933 | 5946 ft | 266 kts | 232° |
| 2026-04-28 05:13 | 48.42002 | 135.02504 | 6980 ft | 260 kts | 258° |
| 2026-04-28 05:13 | 48.41969 | 134.99842 | 7896 ft | 260 kts | 285° |
| 2026-04-28 05:14 | 48.42766 | 134.97416 | 8894 ft | 259 kts | 311° |
| 2026-04-28 05:14 | 48.44205 | 134.95795 | 9871 ft | 263 kts | 335° |
| 2026-04-28 05:14 | 48.46037 | 134.95156 | 10453 ft | 282 kts | 349° |
| 2026-04-28 05:14 | 48.48066 | 134.94772 | 10776 ft | 305 kts | 352° |
| 2026-04-28 05:15 | 48.50226 | 134.94399 | 11327 ft | 318 kts | 352° |
| 2026-04-28 05:15 | 48.52447 | 134.94013 | 12097 ft | 323 kts | 352° |
| 2026-04-28 05:15 | 48.54702 | 134.93604 | 12876 ft | 329 kts | 352° |
| 2026-04-28 05:15 | 48.56990 | 134.93175 | 13650 ft | 334 kts | 352° |
| 2026-04-28 05:16 | 48.59311 | 134.92732 | 14385 ft | 337 kts | 352° |
| 2026-04-28 05:16 | 48.61646 | 134.92284 | 15141 ft | 340 kts | 352° |
| 2026-04-28 05:16 | 48.63980 | 134.91836 | 15868 ft | 344 kts | 352° |
| 2026-04-28 05:17 | 48.68786 | 134.91611 | 17282 ft | 353 kts | 12° |
| 2026-04-28 05:17 | 48.71071 | 134.93054 | 17961 ft | 361 kts | 31° |
| 2026-04-28 05:17 | 48.72956 | 134.95630 | 18566 ft | 370 kts | 50° |
| 2026-04-28 05:17 | 48.74241 | 134.99054 | 19135 ft | 378 kts | 64° |
| 2026-04-28 05:18 | 48.75273 | 135.02741 | 19740 ft | 382 kts | 65° |
| 2026-04-28 05:18 | 48.76282 | 135.06485 | 20343 ft | 385 kts | 65° |
| 2026-04-28 05:18 | 48.77303 | 135.10259 | 20930 ft | 388 kts | 65° |
| 2026-04-28 05:18 | 48.78343 | 135.14063 | 21536 ft | 391 kts | 65° |
| 2026-04-28 05:19 | 48.79384 | 135.17835 | 22086 ft | 395 kts | 65° |
| 2026-04-28 05:19 | 48.80453 | 135.21696 | 22669 ft | 398 kts | 65° |
| 2026-04-28 05:19 | 48.81530 | 135.25580 | 23232 ft | 401 kts | 65° |
| 2026-04-28 05:19 | 48.82617 | 135.29505 | 23731 ft | 405 kts | 65° |
| 2026-04-28 05:20 | 48.83709 | 135.33455 | 24197 ft | 408 kts | 65° |
| 2026-04-28 05:20 | 48.84808 | 135.37434 | 24644 ft | 411 kts | 65° |
| 2026-04-28 05:20 | 48.85917 | 135.41461 | 25092 ft | 414 kts | 65° |
| 2026-04-28 05:20 | 48.87030 | 135.45507 | 25526 ft | 417 kts | 65° |
| 2026-04-28 05:21 | 48.88152 | 135.49595 | 25955 ft | 420 kts | 65° |
| 2026-04-28 05:21 | 48.89278 | 135.53705 | 26365 ft | 423 kts | 65° |
| 2026-04-28 05:21 | 48.90412 | 135.57849 | 26782 ft | 426 kts | 65° |
| 2026-04-28 05:21 | 48.91557 | 135.62042 | 27177 ft | 429 kts | 65° |
| 2026-04-28 05:22 | 48.92703 | 135.66246 | 27566 ft | 432 kts | 65° |
| 2026-04-28 05:22 | 48.93852 | 135.70469 | 27946 ft | 434 kts | 65° |
| 2026-04-28 05:22 | 48.95009 | 135.74731 | 28317 ft | 437 kts | 65° |
| 2026-04-28 05:22 | 48.96158 | 135.78967 | 28665 ft | 440 kts | 65° |
| 2026-04-28 05:23 | 48.97512 | 135.83133 | 29039 ft | 439 kts | 57° |
| 2026-04-28 05:23 | 48.99229 | 135.86982 | 29363 ft | 439 kts | 49° |
| 2026-04-28 05:23 | 49.01267 | 135.90448 | 29679 ft | 440 kts | 42° |
| 2026-04-28 05:23 | 49.03446 | 135.93727 | 30010 ft | 442 kts | 42° |
| 2026-04-28 05:24 | 49.05634 | 135.97049 | 30289 ft | 445 kts | 43° |
| 2026-04-28 05:24 | 49.07856 | 136.00434 | 30566 ft | 447 kts | 43° |
| 2026-04-28 05:24 | 49.10036 | 136.03763 | 30833 ft | 450 kts | 43° |
| 2026-04-28 05:24 | 49.12253 | 136.07149 | 31128 ft | 451 kts | 43° |
| 2026-04-28 05:25 | 49.14477 | 136.10550 | 31488 ft | 452 kts | 43° |
| 2026-04-28 05:25 | 49.16697 | 136.13949 | 31873 ft | 451 kts | 43° |
| 2026-04-28 05:25 | 49.18911 | 136.17342 | 32217 ft | 451 kts | 43° |
| 2026-04-28 05:25 | 49.21130 | 136.20748 | 32563 ft | 451 kts | 43° |
| 2026-04-28 05:26 | 49.23349 | 136.24157 | 32893 ft | 451 kts | 43° |
| 2026-04-28 05:26 | 49.25570 | 136.27575 | 33222 ft | 452 kts | 43° |
| 2026-04-28 05:26 | 49.27757 | 136.30945 | 33536 ft | 452 kts | 43° |
| 2026-04-28 05:26 | 49.29976 | 136.34368 | 33847 ft | 452 kts | 43° |
| 2026-04-28 05:27 | 49.32193 | 136.37794 | 34105 ft | 452 kts | 43° |
| 2026-04-28 05:27 | 49.34408 | 136.41220 | 34348 ft | 452 kts | 43° |
| 2026-04-28 05:27 | 49.36624 | 136.44654 | 34591 ft | 452 kts | 43° |
| 2026-04-28 05:27 | 49.38842 | 136.48094 | 34820 ft | 453 kts | 43° |
| 2026-04-28 05:28 | 49.43289 | 136.54932 | 34893 ft | 459 kts | 40° |
| 2026-04-28 05:28 | 49.48414 | 136.60817 | 34894 ft | 459 kts | 31° |
| 2026-04-28 05:29 | 49.53727 | 136.66241 | 34904 ft | 457 kts | 31° |
| 2026-04-28 05:29 | 49.59028 | 136.71684 | 34901 ft | 458 kts | 31° |
| 2026-04-28 05:30 | 49.64333 | 136.77134 | 34895 ft | 458 kts | 31° |
| 2026-04-28 05:30 | 49.69642 | 136.82599 | 34898 ft | 458 kts | 31° |
| 2026-04-28 05:31 | 49.74946 | 136.88073 | 34908 ft | 458 kts | 31° |
| 2026-04-28 05:31 | 49.80210 | 136.93519 | 34896 ft | 457 kts | 31° |
| 2026-04-28 05:32 | 49.85501 | 136.99009 | 34892 ft | 457 kts | 31° |
| 2026-04-28 05:32 | 49.90797 | 137.04518 | 34892 ft | 457 kts | 32° |
| 2026-04-28 05:33 | 49.96080 | 137.10029 | 34896 ft | 457 kts | 32° |
| 2026-04-28 05:33 | 50.01364 | 137.15556 | 34893 ft | 457 kts | 32° |
| 2026-04-28 05:34 | 50.06637 | 137.21085 | 34892 ft | 457 kts | 32° |
| 2026-04-28 05:34 | 50.11905 | 137.26643 | 34893 ft | 457 kts | 32° |
| 2026-04-28 05:35 | 50.17151 | 137.32262 | 34891 ft | 457 kts | 32° |
| 2026-04-28 05:35 | 50.22380 | 137.37875 | 34890 ft | 457 kts | 32° |
| 2026-04-28 05:36 | 50.27626 | 137.43514 | 34891 ft | 457 kts | 32° |
| 2026-04-28 05:36 | 50.32866 | 137.49160 | 34893 ft | 457 kts | 32° |
| 2026-04-28 05:37 | 50.38084 | 137.54803 | 34896 ft | 457 kts | 33° |
| 2026-04-28 05:37 | 50.43140 | 137.60870 | 34894 ft | 458 kts | 35° |
| 2026-04-28 05:38 | 50.48207 | 137.66967 | 34890 ft | 457 kts | 35° |
| 2026-04-28 05:38 | 50.53252 | 137.73061 | 34889 ft | 457 kts | 35° |
| 2026-04-28 05:39 | 50.58297 | 137.79179 | 34892 ft | 458 kts | 36° |
| 2026-04-28 05:40 | 50.66678 | 137.89383 | 34887 ft | 458 kts | 36° |